Time;durP1;ratioP1;P1;durP2;ratioP2;P2;SDS_P1;SDS_P2;PMS_P1;PMS_P2;Temp;Humidity;BMP_temperature;BMP_pressure;BME280_temperature;BME280_humidity;BME280_pressure;Samples;Min_cycle;Max_cycle;Signal;HPM_P1;HPM_P2
2021/05/21 00:04:01;;;;;;;1.40;1.30;;;;;;;14.41;54.84;99856.72;10301755;28;20050;-71
2021/05/21 00:09:06;;;;;;;1.52;1.40;;;;;;;14.34;54.96;99851.16;10319148;28;20038;-72
2021/05/21 00:14:07;;;;;;;1.83;1.30;;;;;;;14.35;55.40;99847.47;10324556;28;20074;-73
2021/05/21 00:19:09;;;;;;;1.58;1.40;;;;;;;14.32;54.92;99829.03;10348867;28;20070;-72
2021/05/21 00:24:10;;;;;;;1.60;1.50;;;;;;;14.30;55.26;99825.69;10362116;28;20600;-73
2021/05/21 00:29:12;;;;;;;1.60;1.50;;;;;;;14.30;55.09;99836.41;10330407;28;20045;-72
2021/05/21 00:34:13;;;;;;;3.42;1.30;;;;;;;14.27;54.87;99823.31;10327375;28;20598;-72
2021/05/21 00:39:15;;;;;;;1.65;1.20;;;;;;;14.26;54.31;99808.25;10332443;28;20069;-71
2021/05/21 00:44:16;;;;;;;3.38;1.40;;;;;;;14.21;54.07;99795.34;10334818;28;20060;-71
2021/05/21 00:49:18;;;;;;;1.00;0.90;;;;;;;14.25;53.00;99799.41;10329064;28;20120;-71
2021/05/21 00:54:20;;;;;;;3.10;1.00;;;;;;;14.26;53.26;99800.22;10346696;28;20108;-72
2021/05/21 00:59:21;;;;;;;2.33;0.88;;;;;;;14.31;53.11;99776.50;10326075;28;20096;-74
2021/05/21 01:04:23;;;;;;;2.40;1.00;;;;;;;14.23;53.17;99768.41;10319456;28;20080;-70
2021/05/21 01:09:24;;;;;;;2.13;0.90;;;;;;;14.22;53.12;99762.25;10335656;28;20284;-70
2021/05/21 01:14:26;;;;;;;1.20;0.90;;;;;;;14.21;53.04;99757.03;10327247;28;20496;-70
2021/05/21 01:19:28;;;;;;;1.83;0.90;;;;;;;14.20;53.12;99758.03;10350583;28;20081;-71
2021/05/21 01:24:29;;;;;;;1.20;0.88;;;;;;;14.11;53.47;99749.97;10306955;28;20179;-72
2021/05/21 01:29:31;;;;;;;1.42;1.00;;;;;;;14.09;53.35;99740.41;10360384;28;20237;-72
2021/05/21 01:34:34;;;;;;;2.83;1.17;;;;;;;14.07;53.71;99735.22;10315028;28;20240;-72
2021/05/21 01:39:36;;;;;;;1.25;0.90;;;;;;;14.09;53.67;99716.34;10323277;28;20096;-71
2021/05/21 01:44:39;;;;;;;1.30;0.93;;;;;;;14.06;54.18;99704.09;10312028;28;20483;-71
2021/05/21 01:49:41;;;;;;;2.67;0.80;;;;;;;14.08;54.25;99711.97;10349568;28;20064;-72
2021/05/21 01:54:42;;;;;;;1.48;1.17;;;;;;;14.09;54.38;99701.09;10339275;28;20065;-72
2021/05/21 01:59:44;;;;;;;2.97;0.95;;;;;;;14.10;54.42;99692.09;10335220;28;20107;-71
2021/05/21 02:04:45;;;;;;;2.58;1.67;;;;;;;14.06;54.55;99689.88;10317476;28;20056;-72
2021/05/21 02:09:46;;;;;;;2.25;1.80;;;;;;;13.88;54.62;99684.63;10318880;28;20088;-72
2021/05/21 02:14:48;;;;;;;1.73;1.00;;;;;;;14.02;54.68;99677.81;10344988;28;20162;-72
2021/05/21 02:19:50;;;;;;;1.52;0.95;;;;;;;14.06;54.52;99666.63;10343074;28;20050;-72
2021/05/21 02:24:55;;;;;;;2.53;1.50;;;;;;;14.05;54.89;99648.06;10326701;28;20054;-71
2021/05/21 02:29:57;;;;;;;2.13;1.00;;;;;;;14.00;54.82;99632.50;10322909;28;20053;-72
2021/05/21 02:34:58;;;;;;;1.60;1.00;;;;;;;14.00;55.00;99623.63;10318910;28;20049;-72
2021/05/21 02:40:00;;;;;;;1.65;1.02;;;;;;;14.10;55.14;99614.47;10336695;28;20132;-72
2021/05/21 02:45:03;;;;;;;2.80;1.40;;;;;;;14.03;55.13;99602.72;10341796;28;20136;-72
2021/05/21 02:50:06;;;;;;;1.65;1.20;;;;;;;13.78;54.64;99570.56;10354824;23;20069;-71
2021/05/21 02:55:09;;;;;;;1.00;0.90;;;;;;;13.83;54.49;99574.59;10200250;28;20058;-75
2021/05/21 03:00:11;;;;;;;2.05;1.20;;;;;;;13.63;54.85;99563.28;10225529;28;21480;-75
2021/05/21 03:05:17;;;;;;;1.42;1.00;;;;;;;13.67;54.47;99576.16;10252356;28;20059;-75
2021/05/21 03:10:20;;;;;;;1.00;0.90;;;;;;;13.64;54.24;99564.97;10242167;28;20058;-74
2021/05/21 03:15:22;;;;;;;1.63;0.80;;;;;;;13.68;54.23;99556.47;10206906;28;20063;-74
2021/05/21 03:20:24;;;;;;;2.60;0.88;;;;;;;13.77;53.76;99557.34;10253881;28;20145;-74
2021/05/21 03:25:26;;;;;;;0.70;0.60;;;;;;;13.75;53.41;99560.19;10244597;28;20043;-74
2021/05/21 03:30:27;;;;;;;1.15;0.55;;;;;;;13.68;53.49;99542.25;10258619;28;20051;-74
2021/05/21 03:35:29;;;;;;;1.15;0.88;;;;;;;13.64;53.40;99549.75;10260559;28;20055;-74
2021/05/21 03:40:33;;;;;;;2.33;0.70;;;;;;;13.60;53.09;99537.69;10255405;28;20063;-72
2021/05/21 03:45:35;;;;;;;1.98;1.40;;;;;;;13.54;53.44;99533.00;10264698;28;20500;-74
2021/05/21 03:50:36;;;;;;;1.27;0.88;;;;;;;13.61;53.40;99536.69;10263790;28;20488;-73
2021/05/21 03:55:37;;;;;;;2.30;1.02;;;;;;;13.58;53.15;99524.47;10250068;28;20405;-72
2021/05/21 04:00:39;;;;;;;1.83;0.70;;;;;;;13.66;53.66;99536.22;10247408;28;20066;-71
2021/05/21 04:05:40;;;;;;;5.63;0.73;;;;;;;13.61;53.56;99526.00;10261973;28;20504;-71
2021/05/21 04:10:42;;;;;;;1.02;0.80;;;;;;;13.64;54.47;99525.69;10247735;28;20105;-74
2021/05/21 04:15:43;;;;;;;1.80;0.80;;;;;;;13.67;53.86;99512.00;10246914;28;20128;-75
2021/05/21 04:20:45;;;;;;;1.95;0.60;;;;;;;13.78;54.09;99525.06;10264439;28;20042;-74
2021/05/21 04:25:48;;;;;;;1.40;0.80;;;;;;;13.79;53.39;99499.97;10259567;28;20561;-74
2021/05/21 04:30:52;;;;;;;1.33;0.77;;;;;;;13.97;53.46;99517.75;10258878;28;20050;-74
2021/05/21 04:35:53;;;;;;;1.53;0.70;;;;;;;13.94;53.73;99507.38;10239828;28;20078;-70
2021/05/21 04:40:54;;;;;;;2.30;0.90;;;;;;;13.99;53.58;99509.56;10247460;28;20055;-72
2021/05/21 04:45:57;;;;;;;0.98;0.70;;;;;;;14.02;53.30;99501.22;10251614;28;20109;-74
2021/05/21 04:50:59;;;;;;;0.75;0.70;;;;;;;14.00;53.57;99498.72;10249408;28;20442;-74
2021/05/21 04:56:00;;;;;;;4.03;1.38;;;;;;;14.08;53.69;99516.63;10248482;28;20054;-75
2021/05/21 05:01:03;;;;;;;2.05;1.00;;;;;;;14.18;54.11;99497.75;10239371;28;20070;-75
2021/05/21 05:06:04;;;;;;;2.22;0.80;;;;;;;14.22;53.56;99505.28;10252426;28;20050;-79
2021/05/21 05:11:06;;;;;;;1.63;1.10;;;;;;;14.22;53.85;99489.22;10218622;28;20055;-76
2021/05/21 05:16:08;;;;;;;2.80;0.90;;;;;;;14.10;54.23;99469.97;10254104;28;20097;-76
2021/05/21 05:21:10;;;;;;;1.13;0.70;;;;;;;14.31;54.07;99482.03;10275613;28;20450;-73
2021/05/21 05:26:12;;;;;;;2.45;1.35;;;;;;;14.31;53.85;99455.25;10249907;28;20051;-75
2021/05/21 05:31:14;;;;;;;1.48;0.70;;;;;;;14.30;53.59;99453.59;10262218;28;20430;-75
2021/05/21 05:36:15;;;;;;;1.40;0.85;;;;;;;14.39;53.72;99460.59;10248271;28;20501;-75
2021/05/21 05:41:17;;;;;;;1.58;0.80;;;;;;;14.56;52.81;99441.84;10265038;28;20477;-73
2021/05/21 05:46:18;;;;;;;1.58;0.93;;;;;;;14.59;53.11;99436.16;10238396;28;20382;-74
2021/05/21 05:51:20;;;;;;;3.40;0.73;;;;;;;14.59;52.62;99425.44;10251273;28;20039;-73
2021/05/21 05:56:21;;;;;;;2.42;1.15;;;;;;;14.69;52.34;99410.06;10246348;28;20047;-74
2021/05/21 06:01:23;;;;;;;2.63;1.00;;;;;;;14.80;51.92;99411.53;10245768;28;20129;-74
2021/05/21 06:06:24;;;;;;;3.80;1.48;;;;;;;14.98;51.63;99414.84;10255674;28;20054;-75
2021/05/21 06:11:29;;;;;;;2.95;0.68;;;;;;;15.13;50.81;99398.88;10234507;28;20054;-72
2021/05/21 06:16:31;;;;;;;1.50;0.70;;;;;;;15.23;50.69;99387.09;10253359;28;20532;-71
2021/05/21 06:21:32;;;;;;;5.15;1.20;;;;;;;15.45;50.15;99391.69;10252677;28;20529;-82
2021/05/21 06:26:38;;;;;;;1.98;0.80;;;;;;;15.55;49.74;99394.97;10237871;28;20051;-79
2021/05/21 06:31:40;;;;;;;2.85;1.08;;;;;;;15.57;49.34;99376.03;10241199;28;20444;-80
2021/05/21 06:36:41;;;;;;;1.95;0.80;;;;;;;15.69;49.08;99379.13;10241853;28;20063;-77
2021/05/21 06:41:43;;;;;;;1.33;0.70;;;;;;;15.55;48.78;99373.53;10240983;28;20450;-75
2021/05/21 06:46:44;;;;;;;1.55;0.90;;;;;;;15.61;48.98;99365.75;10259629;28;20058;-77
2021/05/21 06:51:45;;;;;;;5.50;0.90;;;;;;;15.72;49.08;99362.69;10246751;28;20121;-77
2021/05/21 06:56:47;;;;;;;2.33;1.23;;;;;;;15.70;48.56;99375.41;10236155;28;20125;-79
2021/05/21 07:01:48;;;;;;;2.22;0.98;;;;;;;15.76;48.77;99352.41;10255651;28;20509;-79
2021/05/21 07:06:50;;;;;;;2.67;0.68;;;;;;;15.72;47.55;99368.06;10249980;28;20070;-81
2021/05/21 07:11:51;;;;;;;2.15;0.70;;;;;;;15.58;48.53;99368.81;10266723;28;20580;-77
2021/05/21 07:16:53;;;;;;;1.67;0.80;;;;;;;15.54;48.74;99379.06;10251885;28;20093;-78
2021/05/21 07:21:54;;;;;;;3.35;0.65;;;;;;;15.63;48.51;99363.75;10253515;28;20489;-79
2021/05/21 07:26:55;;;;;;;1.23;0.57;;;;;;;15.82;48.15;99365.16;10266132;28;20055;-78
2021/05/21 07:31:57;;;;;;;2.90;0.47;;;;;;;15.84;48.03;99366.66;10264201;28;20074;-79
2021/05/21 07:36:58;;;;;;;1.55;0.60;;;;;;;15.65;47.92;99330.34;10264464;28;20835;-77
2021/05/21 07:42:00;;;;;;;1.48;0.85;;;;;;;15.74;48.00;99325.78;10247674;28;20055;-80
2021/05/21 07:47:01;;;;;;;1.63;0.98;;;;;;;15.90;48.20;99346.31;10265420;28;20071;-78
2021/05/21 07:52:03;;;;;;;8.10;1.23;;;;;;;15.95;47.71;99329.66;10263842;28;20058;-80
2021/05/21 07:57:05;;;;;;;3.45;0.50;;;;;;;15.87;47.51;99331.41;10264915;28;20417;-76
2021/05/21 08:02:07;;;;;;;2.10;0.35;;;;;;;15.83;47.39;99305.94;10249470;28;20220;-79
2021/05/21 08:07:09;;;;;;;1.50;0.47;;;;;;;15.97;48.06;99323.06;10250015;28;20042;-82
2021/05/21 08:12:10;;;;;;;1.27;0.63;;;;;;;15.88;48.53;99327.72;10257238;28;20818;-79
2021/05/21 08:17:12;;;;;;;4.70;1.05;;;;;;;16.21;48.12;99322.03;10243066;28;20074;-71
2021/05/21 08:22:33;;;;;;;2.80;0.93;;;;;;;16.12;48.11;99336.53;10258035;28;20050;-74
2021/05/21 08:27:35;;;;;;;2.35;0.70;;;;;;;16.15;47.91;99346.91;10261323;28;20051;-74
2021/05/21 08:32:36;;;;;;;2.13;0.75;;;;;;;16.35;48.13;99319.53;10254366;28;20058;-74
2021/05/21 08:37:38;;;;;;;1.33;0.90;;;;;;;16.45;47.56;99309.34;10245078;28;20068;-71
2021/05/21 08:42:40;;;;;;;3.42;1.23;;;;;;;16.59;47.57;99321.97;10235880;28;20051;-76
2021/05/21 08:47:42;;;;;;;5.07;0.68;;;;;;;16.60;47.04;99318.28;10242667;28;20043;-74
2021/05/21 08:52:45;;;;;;;2.65;1.27;;;;;;;16.51;47.55;99332.78;10243053;28;20109;-74
2021/05/21 08:57:46;;;;;;;2.47;0.65;;;;;;;16.52;47.76;99345.22;10261495;28;20486;-74
2021/05/21 09:02:48;;;;;;;4.18;0.90;;;;;;;16.63;46.44;99361.91;10262064;28;20141;-78
2021/05/21 09:07:49;;;;;;;4.57;1.00;;;;;;;16.77;44.41;99367.28;10266512;28;20150;-74
2021/05/21 09:12:52;;;;;;;2.33;0.90;;;;;;;16.72;43.81;99355.41;10261992;28;21018;-75
2021/05/21 09:17:58;;;;;;;5.28;0.90;;;;;;;16.87;43.27;99344.69;10246746;28;20355;-74
2021/05/21 09:23:14;;;;;;;3.65;0.95;;;;;;;17.11;42.17;99347.09;10249282;28;20059;-73
2021/05/21 09:28:37;;;;;;;2.70;1.00;;;;;;;17.90;40.84;99371.53;10256170;28;20556;-73
2021/05/21 09:33:44;;;;;;;3.40;1.00;;;;;;;17.93;40.67;99342.38;10256833;28;20062;-75
2021/05/21 09:38:46;;;;;;;5.88;1.05;;;;;;;18.12;40.66;99345.41;10255789;28;20059;-72
2021/05/21 09:43:50;;;;;;;4.85;1.30;;;;;;;18.06;40.01;99330.91;10258450;28;20336;-73
2021/05/21 09:48:51;;;;;;;2.83;1.13;;;;;;;17.81;40.46;99333.94;10261142;28;20108;-74
2021/05/21 09:53:59;;;;;;;7.75;2.45;;;;;;;17.69;41.07;99357.03;10264363;28;20145;-75
2021/05/21 09:59:02;;;;;;;5.93;1.90;;;;;;;17.82;40.84;99367.09;10257999;28;20051;-75
2021/05/21 10:04:08;;;;;;;5.87;2.13;;;;;;;17.98;40.34;99341.78;10265316;28;20058;-74
2021/05/21 10:09:10;;;;;;;5.68;0.90;;;;;;;18.59;38.23;99354.69;10265289;28;20231;-76
2021/05/21 10:14:11;;;;;;;6.47;1.38;;;;;;;18.26;37.70;99371.44;10269837;28;20137;-76
2021/05/21 10:19:13;;;;;;;7.35;1.23;;;;;;;17.81;38.19;99362.72;10254804;28;20050;-76
2021/05/21 10:24:18;;;;;;;4.00;1.20;;;;;;;18.22;38.57;99370.16;10256059;28;20050;-72
2021/05/21 10:29:25;;;;;;;5.47;1.27;;;;;;;18.15;38.29;99364.72;10269758;28;20793;-75
2021/05/21 10:34:27;;;;;;;5.82;1.70;;;;;;;18.10;38.48;99355.56;10247052;28;20540;-74
2021/05/21 10:39:30;;;;;;;3.05;1.08;;;;;;;18.72;38.38;99354.75;10275928;28;20114;-75
2021/05/21 10:44:38;;;;;;;4.95;1.60;;;;;;;18.89;37.83;99360.69;10275119;28;20106;-75
2021/05/21 10:49:40;;;;;;;4.80;1.52;;;;;;;18.67;38.85;99346.41;10259657;28;20493;-75
2021/05/21 10:54:44;;;;;;;5.75;1.77;;;;;;;18.60;38.54;99350.09;10260148;28;20130;-75
2021/05/21 10:59:55;;;;;;;7.38;2.17;;;;;;;18.28;39.31;99337.03;10259820;28;20563;-75
2021/05/21 11:05:21;;;;;;;8.77;1.73;;;;;;;18.60;39.08;99356.34;10260495;28;20070;-75
2021/05/21 11:10:32;;;;;;;6.90;1.65;;;;;;;18.55;38.71;99338.09;10261113;28;20054;-75
2021/05/21 11:15:43;;;;;;;5.70;1.55;;;;;;;18.63;38.30;99312.84;10259881;28;20114;-75
2021/05/21 11:20:57;;;;;;;8.00;1.98;;;;;;;18.83;38.03;99334.50;10258812;28;20109;-75
2021/05/21 11:26:08;;;;;;;4.38;1.90;;;;;;;18.71;38.53;99306.44;10261820;28;20039;-76
2021/05/21 11:31:15;;;;;;;5.35;1.50;;;;;;;18.66;38.30;99304.34;10260164;28;20097;-72
2021/05/21 11:36:20;;;;;;;5.00;1.90;;;;;;;18.74;38.51;99311.44;10260687;28;20050;-77
2021/05/21 11:41:30;;;;;;;7.00;1.45;;;;;;;18.76;37.20;99284.28;10261697;28;20192;-75
2021/05/21 11:46:40;;;;;;;5.40;1.60;;;;;;;19.15;36.54;99294.41;10259566;28;20097;-73
2021/05/21 11:51:42;;;;;;;6.95;1.65;;;;;;;18.94;37.04;99325.03;10264469;28;20085;-76
2021/05/21 11:56:44;;;;;;;3.72;1.30;;;;;;;18.77;36.49;99342.56;10275150;28;20441;-73
2021/05/21 12:01:49;;;;;;;4.22;1.58;;;;;;;18.99;36.71;99306.41;10274867;28;20046;-74
2021/05/21 12:06:51;;;;;;;7.60;1.50;;;;;;;19.28;35.82;99312.50;10254694;28;20066;-74
2021/05/21 12:11:55;;;;;;;5.90;1.50;;;;;;;19.73;35.76;99306.56;10254281;28;20560;-76
2021/05/21 12:16:57;;;;;;;4.78;1.30;;;;;;;19.70;35.65;99297.00;10272952;28;20477;-75
2021/05/21 12:21:59;;;;;;;6.97;1.25;;;;;;;19.88;35.08;99309.09;10253527;28;20059;-74
2021/05/21 12:27:00;;;;;;;8.75;2.42;;;;;;;19.40;33.93;99304.66;10273433;28;20453;-75
2021/05/21 12:32:05;;;;;;;5.85;1.30;;;;;;;19.18;33.76;99277.81;10249104;28;20059;-74
2021/05/21 12:37:08;;;;;;;6.25;1.83;;;;;;;19.21;34.07;99298.16;10278921;28;20168;-73
2021/05/21 12:42:14;;;;;;;4.38;1.10;;;;;;;19.56;34.32;99316.91;10256247;28;20125;-76
2021/05/21 12:47:16;;;;;;;5.82;1.42;;;;;;;19.19;34.70;99305.63;10256801;28;22276;-77
2021/05/21 12:52:17;;;;;;;4.80;0.98;;;;;;;19.01;35.11;99298.94;10280773;28;20063;-76
2021/05/21 12:57:22;;;;;;;4.15;1.38;;;;;;;19.30;35.61;99296.13;10254621;28;20560;-74
2021/05/21 13:02:29;;;;;;;4.07;1.33;;;;;;;19.06;34.77;99318.00;10262688;28;20070;-76
2021/05/21 13:07:34;;;;;;;4.95;1.23;;;;;;;18.97;35.46;99288.75;10261683;28;20059;-77
2021/05/21 13:12:42;;;;;;;5.15;1.27;;;;;;;19.06;34.21;99307.22;10273865;28;20059;-73
2021/05/21 13:17:45;;;;;;;4.85;1.45;;;;;;;19.25;33.52;99294.84;10256854;28;20424;-73
2021/05/21 13:23:09;;;;;;;4.07;0.73;;;;;;;19.54;33.57;99302.81;10269286;28;20070;-74
2021/05/21 13:28:12;;;;;;;4.30;1.30;;;;;;;19.35;33.98;99304.41;10271787;28;20051;-76
2021/05/21 13:33:14;;;;;;;3.67;1.00;;;;;;;19.24;34.07;99297.75;10255750;28;20164;-74
2021/05/21 13:38:15;;;;;;;5.40;1.40;;;;;;;18.98;33.35;99295.81;10265522;28;20149;-73
2021/05/21 13:43:18;;;;;;;3.97;0.90;;;;;;;18.98;32.32;99299.31;10255003;28;20062;-75
2021/05/21 13:48:19;;;;;;;3.90;1.13;;;;;;;18.91;33.21;99295.78;10268655;28;20050;-76
2021/05/21 13:53:22;;;;;;;4.82;1.30;;;;;;;18.87;33.29;99297.19;10261739;28;20078;-75
2021/05/21 13:58:23;;;;;;;5.03;1.00;;;;;;;18.85;32.27;99293.84;10253595;28;20756;-76
2021/05/21 14:03:25;;;;;;;4.50;0.88;;;;;;;18.97;32.58;99276.09;10255225;28;20051;-74
2021/05/21 14:08:26;;;;;;;4.57;0.80;;;;;;;18.96;31.66;99285.22;10256910;28;20074;-75
2021/05/21 14:13:28;;;;;;;4.15;1.00;;;;;;;19.05;32.39;99281.31;10242729;28;20066;-74
2021/05/21 14:18:29;;;;;;;3.40;1.00;;;;;;;19.08;31.66;99258.50;10256412;28;20130;-74
2021/05/21 14:23:31;;;;;;;4.70;1.33;;;;;;;19.33;31.30;99261.44;10257519;28;20132;-76
2021/05/21 14:28:33;;;;;;;4.30;1.10;;;;;;;19.21;30.97;99246.91;10282066;28;20087;-75
2021/05/21 14:33:37;;;;;;;3.58;1.58;;;;;;;19.09;31.81;99281.72;10279381;28;20055;-77
2021/05/21 14:38:38;;;;;;;3.97;1.30;;;;;;;18.78;31.94;99255.25;10243949;28;20117;-73
2021/05/21 14:43:39;;;;;;;9.70;1.08;;;;;;;18.63;32.52;99237.38;10238507;28;20101;-74
2021/05/21 14:48:41;;;;;;;6.35;1.30;;;;;;;19.01;32.00;99250.38;10256267;28;20078;-75
2021/05/21 14:53:58;;;;;;;1.90;0.80;;;;;;;18.83;32.53;99247.41;10242074;28;20063;-72
2021/05/21 14:59:00;;;;;;;4.75;1.52;;;;;;;18.86;32.48;99220.06;10252646;28;20046;-75
2021/05/21 15:04:01;;;;;;;4.72;1.30;;;;;;;18.50;32.95;99226.53;10244691;28;20062;-78
2021/05/21 15:09:05;;;;;;;3.75;1.10;;;;;;;18.24;33.86;99222.66;10243004;28;20101;-77
2021/05/21 15:14:12;;;;;;;2.90;0.80;;;;;;;18.33;33.89;99226.84;10255095;28;20082;-77
2021/05/21 15:29:40;;;;;;;3.80;1.42;;;;;;;18.13;35.96;99210.56;10262844;28;20047;-74
2021/05/21 15:34:41;;;;;;;5.22;1.20;;;;;;;17.99;36.07;99187.31;10262198;28;20202;-74
2021/05/21 15:39:43;;;;;;;3.90;1.23;;;;;;;18.15;36.30;99218.44;10261330;28;20065;-74
2021/05/21 15:50:17;;;;;;;3.38;0.95;;;;;;;17.73;37.86;99171.75;10261775;28;20058;-73
2021/05/21 16:00:39;;;;;;;4.25;0.90;;;;;;;17.62;37.65;99176.66;10260013;28;20075;-75
2021/05/21 16:05:42;;;;;;;4.45;1.00;;;;;;;17.73;37.80;99163.69;10253105;28;20054;-76
2021/05/21 16:10:47;;;;;;;3.35;1.35;;;;;;;17.72;36.20;99159.34;10249515;28;20121;-74
2021/05/21 16:15:48;;;;;;;4.45;1.10;;;;;;;17.77;37.03;99151.50;10262379;28;20117;-76
2021/05/21 16:20:50;;;;;;;3.50;1.73;;;;;;;17.71;37.03;99131.59;10261858;28;20089;-75
2021/05/21 16:25:52;;;;;;;5.03;1.15;;;;;;;17.70;37.15;99134.47;10250863;28;20117;-74
2021/05/21 16:30:53;;;;;;;3.05;1.08;;;;;;;17.63;38.52;99135.28;10245708;28;20140;-74
2021/05/21 16:35:55;;;;;;;3.55;1.20;;;;;;;17.58;38.86;99126.97;10242751;28;20140;-73
2021/05/21 16:40:57;;;;;;;4.75;1.42;;;;;;;17.59;39.42;99114.34;10257220;28;20048;-73
2021/05/21 16:45:59;;;;;;;3.90;1.10;;;;;;;17.41;39.59;99120.22;10246605;28;20070;-75
2021/05/21 16:51:01;;;;;;;4.43;1.27;;;;;;;17.27;39.74;99120.09;10252156;28;20101;-74
2021/05/21 16:56:02;;;;;;;4.05;1.25;;;;;;;17.15;40.03;99116.28;10259055;28;20082;-75
2021/05/21 17:01:04;;;;;;;6.35;1.98;;;;;;;17.05;40.28;99105.84;10282941;28;20038;-72
2021/05/21 17:06:09;;;;;;;6.10;1.55;;;;;;;17.05;40.16;99113.09;10285833;28;20047;-73
2021/05/21 17:11:11;;;;;;;3.58;1.15;;;;;;;17.02;40.23;99095.50;10274010;28;20744;-75
2021/05/21 17:42:37;;;;;;;4.60;1.30;;;;;;;16.87;40.58;99055.25;10269832;28;20136;-74
2021/05/21 19:00:36;;;;;;;5.03;1.35;;;;;;;15.35;50.58;99034.47;10266073;28;20078;-71
2021/05/21 19:05:38;;;;;;;3.60;1.48;;;;;;;15.38;50.55;99056.38;10262048;28;20051;-72
2021/05/21 19:16:04;;;;;;;3.88;0.98;;;;;;;15.28;51.05;99037.06;10278852;28;20047;-73
2021/05/21 19:21:29;;;;;;;6.07;1.20;;;;;;;15.23;51.22;99047.47;10259348;28;20122;-73
2021/05/21 19:26:31;;;;;;;3.33;1.00;;;;;;;15.16;51.83;99042.03;10277306;28;20564;-73
2021/05/21 19:31:50;;;;;;;3.47;1.20;;;;;;;14.98;52.33;99028.97;10263661;28;20441;-73
2021/05/21 20:13:56;;;;;;;2.67;1.23;;;;;;;14.72;54.94;99045.44;10260165;28;20094;-74
2021/05/21 20:18:58;;;;;;;2.33;1.00;;;;;;;14.49;58.17;99078.38;10246068;28;20138;-76
2021/05/21 20:23:59;;;;;;;2.53;0.90;;;;;;;14.38;59.13;99068.09;10240488;28;20133;-75
2021/05/21 21:00:55;;;;;;;1.42;1.00;;;;;;;13.95;61.20;99065.78;10213161;28;20122;-73
2021/05/21 21:06:03;;;;;;;2.25;0.63;;;;;;;14.00;61.20;99078.66;10226541;28;20043;-73
2021/05/21 21:11:27;;;;;;;2.03;0.95;;;;;;;14.05;61.08;99062.06;10225763;28;20643;-74
2021/05/21 21:27:00;;;;;;;1.95;0.80;;;;;;;13.94;61.57;99057.94;10212743;28;20467;-76
2021/05/21 21:53:32;;;;;;;0.88;0.55;;;;;;;13.58;63.10;99061.09;10243528;28;20055;-73
2021/05/21 22:03:43;;;;;;;3.30;1.40;;;;;;;13.60;64.43;99061.75;10256729;28;20066;-75
2021/05/21 22:24:33;;;;;;;5.95;1.30;;;;;;;13.30;63.09;99156.84;10250769;28;20082;-73
2021/05/21 22:29:34;;;;;;;4.50;1.83;;;;;;;12.73;66.21;99164.66;10229441;28;20078;-74
2021/05/21 22:34:36;;;;;;;4.03;1.10;;;;;;;12.54;67.56;99155.09;10258983;28;20075;-72
2021/05/21 22:39:37;;;;;;;3.20;0.75;;;;;;;12.60;67.39;99142.94;10253962;28;20149;-75
2021/05/21 22:44:38;;;;;;;4.10;1.10;;;;;;;12.66;67.68;99152.97;10250618;28;20047;-74
2021/05/21 22:49:40;;;;;;;5.00;1.60;;;;;;;12.27;70.50;99156.19;10242437;28;20062;-73
2021/05/21 22:54:42;;;;;;;6.50;2.40;;;;;;;12.54;72.11;99136.41;10236959;28;555189;-74
2021/05/21 22:59:43;;;;;;;6.60;1.50;;;;;;;12.67;72.29;99151.97;10259002;28;20189;-73
2021/05/21 23:04:44;;;;;;;5.03;1.90;;;;;;;12.65;73.19;99185.97;10262564;28;20071;-73
2021/05/21 23:09:46;;;;;;;4.15;1.15;;;;;;;12.61;73.34;99168.66;10255945;28;20078;-73
2021/05/21 23:14:47;;;;;;;5.35;1.10;;;;;;;12.43;74.77;99135.88;10253655;28;20074;-74
2021/05/21 23:19:49;;;;;;;4.72;1.02;;;;;;;12.57;73.29;99148.59;10256283;28;20075;-73
2021/05/21 23:24:50;;;;;;;4.90;1.58;;;;;;;12.31;72.59;99165.56;10257084;28;20228;-74
2021/05/21 23:29:52;;;;;;;2.75;1.20;;;;;;;12.12;75.14;99171.97;10252315;28;20109;-73
2021/05/21 23:34:53;;;;;;;2.97;1.05;;;;;;;12.31;74.46;99192.22;10257601;28;20125;-75
2021/05/21 23:39:55;;;;;;;3.03;1.20;;;;;;;12.19;75.75;99190.84;10251698;28;20059;-74
2021/05/21 23:44:56;;;;;;;3.90;1.15;;;;;;;12.10;74.82;99183.78;10256373;28;20039;-73
2021/05/21 23:49:57;;;;;;;4.30;1.77;;;;;;;11.87;75.11;99173.63;10268346;28;20390;-73
2021/05/21 23:55:01;;;;;;;5.10;1.70;;;;;;;11.94;76.03;99182.72;10258624;28;20055;-73
